Date,TemperatureHighF,TemperatureAvgF,TemperatureLowF,DewpointHighF,DewpointAvgF,DewpointLowF,HumidityHigh,HumidityAvg,HumidityLow,PressureMaxIn,PressureMinIn,WindSpeedMaxMPH,WindSpeedAvgMPH,GustSpeedMaxMPH,PrecipitationSumIn
2013-1-1,19,10,-5,15,5,-9,89,80,70,30.24,30.00,18,7,23,0.00
2013-1-2,30,20,10,25,16,6,88,84,77,30.13,29.92,20,8,27,0.00
2013-1-3,20,12,5,14,7,0,82,79,71,30.29,30.11,18,11,25,0.00
2013-1-4,27,20,14,17,12,8,78,70,62,30.11,30.04,24,9,30,0.00
2013-1-5,28,18,11,19,12,5,84,76,65,30.07,29.86,25,10,30,0.00
2013-1-6,24,16,9,18,10,4,84,77,69,30.22,29.95,18,9,24,0.00
2013-1-7,35,28,23,26,21,17,80,73,67,29.97,29.88,27,9,30,0.00
2013-1-8,33,24,13,26,20,11,92,82,69,29.98,29.72,19,8,23,0.00
2013-1-9,36,31,25,26,24,18,85,76,61,30.34,29.98,27,10,29,0.00
2013-1-10,35,32,26,32,26,20,93,79,68,30.25,29.67,20,13,25,0.23
2013-1-11,38,35,29,37,33,25,93,92,85,29.68,29.38,27,10,29,0.00
2013-1-12,30,12,4,25,5,-3,86,72,64,30.07,29.48,36,16,41,0.01
2013-1-13,12,6,1,2,-1,-5,79,73,55,30.23,30.03,20,10,25,0.00
2013-1-14,19,13,6,10,6,1,81,74,61,30.36,30.23,18,6,20,0.00
2013-1-15,30,21,12,17,12,7,79,69,46,30.24,29.84,27,10,31,0.00
2013-1-16,37,26,7,32,20,-2,89,78,63,30.24,29.71,23,13,29,0.00
2013-1-17,29,18,5,20,8,-5,83,67,48,30.37,30.20,17,7,23,0.00
2013-1-18,42,34,24,30,27,19,86,73,58,30.21,29.76,23,12,27,0.00
2013-1-19,42,30,4,31,21,-3,82,70,63,30.26,29.73,33,14,41,0.00
2013-1-20,11,5,-1,4,-3,-9,78,71,63,30.38,30.26,22,11,27,0.00
2013-1-21,3,-3,-9,-7,-12,-18,75,66,58,30.34,30.26,24,12,29,0.00
2013-1-22,14,4,-6,6,-5,-12,76,65,51,30.34,30.17,15,6,16,0.00
2013-1-23,16,8,-6,10,0,-14,81,70,57,30.54,30.10,29,13,35,0.00
2013-1-24,14,4,-6,5,-8,-15,68,58,46,30.57,30.09,25,13,30,0.00
2013-1-25,23,13,2,16,4,-4,77,65,46,30.26,29.98,29,13,33,0.00
2013-1-26,27,14,0,14,4,-5,80,64,49,30.28,30.01,24,11,28,0.00
2013-1-27,32,30,26,30,24,13,92,80,56,30.02,29.77,21,12,26,0.76
2013-1-28,32,31,29,30,29,27,93,93,91,29.87,29.58,34,17,64,0.00
2013-1-29,32,28,21,30,26,18,93,91,87,29.76,29.54,19,11,19,0.14
2013-1-30,22,13,3,18,8,-3,87,79,74,29.84,29.68,14,14,14,1.20
2013-1-31,3,-4,-8,-3,-11,-16,76,70,64,30.29,29.83,68,30,74,3.27
2013-2-1,18,4,-9,11,-4,-16,80,70,58,30.29,29.97,56,48,56,0.00
2013-2-2,29,13,2,25,8,-3,90,79,68,30.14,29.91,30,8,37,0.00
2013-2-3,21,16,8,14,9,4,87,76,62,30.08,29.85,27,8,31,0.00
2013-2-4,22,14,5,17,8,2,86,78,65,30.03,29.75,23,8,25,0.00
2013-2-5,32,24,13,29,19,8,87,81,72,30.07,29.68,22,9,24,0.00
2013-2-6,42,28,11,32,23,6,85,78,65,30.06,29.83,25,8,33,0.00
2013-2-7,36,24,21,31,21,18,91,88,80,30.24,29.92,22,11,26,0.00
2013-2-8,28,24,22,22,19,16,87,80,74,30.31,30.13,30,11,32,0.00
2013-2-9,34,28,24,29,25,21,90,86,81,30.15,29.81,32,17,37,0.00
2013-2-10,35,31,26,33,29,23,93,91,86,29.81,29.24,27,12,32,0.90
2013-2-11,26,22,18,23,17,12,89,79,71,30.06,29.48,32,17,38,0.00
2013-2-12,34,26,19,26,19,13,85,75,63,30.06,29.83,19,8,21,0.00
2013-2-13,39,32,22,31,25,18,84,77,64,29.83,29.61,25,9,30,0.00
2013-2-14,32,24,10,28,19,3,89,80,68,30.21,29.65,25,13,31,0.00
2013-2-15,17,11,7,9,6,1,84,77,66,30.30,30.21,18,8,20,0.00
2013-2-16,25,16,5,18,11,2,88,81,68,30.25,30.02,11,5,13,0.00
2013-2-17,36,28,18,29,22,14,86,78,71,30.03,29.56,30,16,34,0.00
2013-2-18,36,22,2,30,16,-4,86,77,68,29.93,29.54,36,18,43,0.00
2013-2-19,4,-1,-6,-4,-8,-12,79,73,67,30.36,29.92,34,19,40,0.00
2013-2-20,14,3,-8,7,-4,-13,79,73,62,30.40,30.30,18,7,19,0.00
2013-2-21,23,14,7,12,8,2,86,74,59,30.33,29.97,21,10,25,0.00
2013-2-22,23,18,14,17,14,10,88,84,74,29.97,29.87,16,9,20,0.00
2013-2-23,23,14,4,13,8,0,90,77,55,29.92,29.85,12,5,14,0.00
2013-2-24,23,14,2,20,10,-2,88,84,80,30.07,29.92,8,2,9,0.01
2013-2-25,25,22,21,21,20,18,91,89,84,30.09,29.99,10,4,13,0.00
2013-2-26,27,23,19,23,20,16,90,87,82,30.02,29.86,22,9,25,0.00
2013-2-27,30,22,18,22,17,13,89,80,67,30.04,29.87,27,14,31,0.00
2013-2-28,26,23,18,21,19,15,88,85,80,30.19,30.04,16,9,20,0.00
2013-3-1,23,20,13,20,14,10,87,78,66,30.33,30.18,17,9,20,0.00
2013-3-2,25,17,6,20,11,2,89,78,56,30.31,30.08,14,5,16,0.00
2013-3-3,31,26,19,23,19,16,87,77,65,30.09,29.86,22,12,27,0.00
2013-3-4,28,26,24,26,23,20,91,88,86,29.97,29.79,26,11,30,0.29
2013-3-5,28,24,17,26,20,13,91,84,78,30.30,29.92,26,13,30,0.00
2013-3-6,25,21,18,17,16,14,86,79,68,30.39,30.29,19,7,22,0.00
2013-3-7,27,19,9,20,15,5,90,82,70,30.31,30.18,20,10,23,0.00
2013-3-8,34,26,15,30,22,12,89,84,77,30.23,29.99,25,11,30,0.27
2013-3-9,35,34,32,33,32,30,93,92,89,29.99,29.65,24,12,26,1.89
2013-3-10,32,27,22,30,24,19,92,86,80,29.93,29.76,31,19,40,0.03
2013-3-11,27,23,18,20,17,14,86,77,63,29.88,29.80,24,12,28,0.00
2013-3-12,29,25,19,24,18,13,85,75,66,30.23,29.87,31,16,36,0.00
2013-3-13,30,22,15,21,15,11,85,75,59,30.37,30.18,21,8,27,0.00
2013-3-14,42,33,26,33,27,19,90,77,65,30.18,30.00,18,7,23,0.10
2013-3-15,37,33,31,33,30,28,93,88,84,30.00,29.77,13,7,16,0.00
2013-3-16,32,21,13,30,17,6,93,82,67,30.22,29.86,23,12,26,0.00
2013-3-17,31,20,9,26,13,3,82,73,62,30.22,29.73,35,14,41,0.00
2013-3-18,32,21,12,29,14,3,90,75,65,29.94,29.62,38,21,41,0.36
2013-3-19,24,14,8,13,4,1,74,65,48,30.26,29.94,25,13,36,0.00
2013-3-20,20,14,7,6,3,0,76,63,47,30.29,30.12,24,14,36,0.00
2013-3-21,26,16,6,15,7,1,80,66,47,30.13,29.99,14,5,16,0.00
2013-3-22,31,23,13,21,14,9,87,70,52,30.08,30.02,11,4,13,0.00
2013-3-23,30,25,21,20,17,13,87,69,54,30.15,30.04,15,7,19,0.00
2013-3-24,29,25,20,25,20,15,89,82,71,30.11,29.97,21,12,26,0.00
2013-3-25,32,26,22,22,20,17,87,77,59,30.26,30.03,23,13,29,0.00
2013-3-26,37,26,16,25,18,12,85,71,44,30.30,30.23,15,6,21,0.00
2013-3-27,40,32,24,27,23,20,85,70,49,30.30,30.24,15,6,16,0.00
2013-3-28,48,37,31,36,30,24,87,74,57,30.29,30.21,18,9,20,0.00
2013-3-29,55,43,33,41,35,29,88,75,51,30.23,30.01,23,10,26,0.00
2013-3-30,53,45,34,44,38,32,92,76,61,30.01,29.89,22,10,23,0.00
2013-3-31,36,31,22,32,23,13,93,72,44,30.13,29.87,29,15,34,0.00
2013-4-1,32,25,17,19,13,8,78,61,42,30.28,30.13,22,10,31,0.00
2013-4-2,38,28,20,22,18,16,86,68,46,30.32,30.25,14,6,19,0.00
2013-4-3,50,36,24,33,25,17,79,63,48,30.34,30.08,26,12,36,0.00
2013-4-4,48,40,29,30,27,24,81,61,43,30.18,30.03,22,12,28,0.00
2013-4-5,46,36,26,33,26,22,87,68,51,30.19,29.77,28,11,34,0.00
2013-4-6,55,44,34,43,36,30,87,73,60,29.80,29.52,29,14,30,0.06
2013-4-7,49,38,31,42,33,28,92,85,68,29.94,29.70,19,8,23,0.13
2013-4-8,54,44,39,47,41,37,93,89,76,29.97,29.64,24,9,28,0.00
2013-4-9,39,34,31,37,32,28,93,90,87,30.08,29.89,35,18,45,2.43
2013-4-10,32,31,29,30,28,26,92,90,86,30.06,29.81,1,1,1,0.27
2013-4-11,34,32,31,30,30,29,93,92,87,29.82,29.61,18,6,20,0.23
2013-4-12,32,29,26,29,25,22,92,85,74,29.88,29.66,20,11,22,0.00
2013-4-13,35,30,26,28,24,21,85,76,59,29.93,29.84,17,9,23,0.00
2013-4-14,42,34,32,39,31,27,92,86,69,29.84,29.36,24,15,32,0.04
2013-4-15,38,35,30,30,27,23,81,73,63,30.03,29.54,31,16,39,0.00
2013-4-16,39,34,30,31,26,23,86,73,60,30.28,30.01,16,8,19,0.00
2013-4-17,37,34,32,34,30,28,92,87,77,30.26,29.84,21,11,31,1.11
2013-4-18,32,31,29,30,29,27,92,91,89,29.88,29.61,37,17,42,0.42
2013-4-19,32,28,24,27,22,18,90,79,68,30.04,29.64,29,18,34,0.00
2013-4-20,38,29,18,27,19,14,83,67,47,30.24,30.04,14,7,22,0.00
2013-4-21,54,42,35,45,35,24,86,75,57,30.23,30.00,26,12,30,0.02
2013-4-22,37,33,29,33,30,27,92,89,84,30.18,30.07,31,14,41,0.13
2013-4-23,32,27,21,26,21,18,91,80,59,30.20,30.10,24,12,29,0.00
2013-4-24,49,35,26,35,26,21,87,70,44,30.10,29.93,32,12,40,0.12
2013-4-25,56,40,26,37,27,20,77,59,40,30.21,29.98,27,10,34,0.00
2013-4-26,69,56,45,41,37,33,70,49,27,30.15,29.95,26,10,34,0.00
2013-4-27,73,58,40,43,35,26,76,45,19,30.15,29.91,17,6,22,0.00
2013-4-28,82,63,48,51,44,38,82,55,23,29.92,29.67,24,11,31,0.33
2013-4-29,74,59,43,53,45,36,84,63,36,29.84,29.52,18,8,21,0.00
2013-4-30,67,62,55,58,41,23,82,50,19,29.98,29.45,27,11,33,0.00
2013-5-1,55,36,30,37,30,25,91,78,40,30.46,29.96,28,14,31,1.08
2013-5-2,46,38,32,29,26,22,80,62,41,30.53,30.39,31,16,35,0.00
2013-5-3,41,34,28,33,27,22,90,74,53,30.39,30.11,29,14,32,0.00
2013-5-4,39,36,32,38,33,29,93,91,88,30.16,30.06,24,14,30,0.01
2013-5-5,50,43,39,45,40,37,93,89,81,30.16,30.11,16,8,18,0.00
2013-5-6,65,53,43,50,45,40,89,74,53,30.13,30.04,10,5,14,0.00
2013-5-7,74,62,46,50,44,38,90,57,28,30.09,29.97,16,5,21,0.00
2013-5-8,62,58,54,55,51,46,93,77,56,30.00,29.95,17,6,20,0.25
2013-5-9,61,54,46,54,50,40,93,87,69,30.08,29.93,28,12,31,0.26
2013-5-10,64,51,36,43,33,25,78,54,22,30.11,29.95,27,9,30,0.00
2013-5-11,54,46,39,40,24,14,75,46,23,30.21,29.98,32,16,41,0.00
2013-5-12,58,46,31,22,18,12,63,35,17,30.24,30.10,18,7,24,0.00
2013-5-13,85,60,43,47,32,19,47,35,24,30.11,29.73,30,10,35,0.00
2013-5-14,99,80,56,51,42,28,63,30,14,29.79,29.55,30,14,43,0.00
2013-5-15,76,65,54,42,40,34,59,40,26,29.98,29.78,26,7,29,0.00
2013-5-16,84,71,55,59,42,34,85,39,17,29.93,29.80,16,6,27,0.13
2013-5-17,72,66,60,65,60,57,91,84,72,29.92,29.85,22,10,25,0.69
2013-5-18,82,72,63,65,60,57,90,67,45,29.93,29.77,25,11,28,0.00
2013-5-19,72,68,63,64,61,59,92,80,69,29.78,29.56,23,9,30,0.40
2013-5-20,70,63,58,60,55,50,92,76,49,29.59,29.51,20,10,33,0.01
2013-5-21,61,58,53,57,50,46,90,76,57,29.69,29.51,17,6,21,0.00
2013-5-22,54,49,46,51,46,43,92,88,84,29.99,29.68,21,11,25,0.01
2013-5-23,63,53,43,46,36,27,86,56,27,30.31,29.99,22,10,28,0.00
2013-5-24,70,57,43,52,40,32,77,54,30,30.32,30.12,32,12,33,0.27
2013-5-25,58,53,49,50,48,46,90,83,67,30.18,30.11,28,15,30,0.11
2013-5-26,54,51,48,51,48,46,91,88,84,30.15,29.87,31,13,37,1.87
2013-5-27,57,55,52,54,52,50,93,91,86,30.00,29.79,23,9,26,0.38
2013-5-28,66,58,54,58,54,52,93,89,70,29.81,29.70,11,5,16,0.01
2013-5-29,76,65,53,67,60,51,93,84,65,29.80,29.62,24,11,31,0.50
2013-5-30,70,66,60,62,60,52,90,81,68,29.64,29.49,33,14,39,0.32
2013-5-31,73,65,57,53,50,45,80,59,39,29.61,29.54,29,12,38,0.10
2013-6-1,65,56,51,54,49,42,86,75,66,29.99,29.59,27,12,33,0.00
2013-6-2,66,56,48,46,38,31,89,53,27,30.11,29.98,21,7,32,0.00
2013-6-3,71,61,47,45,41,36,76,49,32,30.06,29.90,24,9,29,0.00
2013-6-4,64,58,54,55,51,44,90,78,50,30.04,29.92,28,14,34,1.10
2013-6-5,65,59,53,54,49,44,93,71,50,30.04,29.95,16,7,18,0.00
2013-6-6,60,56,52,52,49,46,91,77,61,30.04,29.96,14,7,17,0.00
2013-6-7,65,57,51,49,47,43,89,71,46,30.07,29.93,8,4,10,0.00
2013-6-8,62,57,51,56,51,46,88,80,71,29.93,29.80,23,10,30,0.95
2013-6-9,70,63,57,62,58,54,92,83,64,29.83,29.67,24,11,30,0.52
2013-6-10,75,64,58,60,57,55,93,79,54,29.91,29.83,13,6,15,0.00
2013-6-11,86,72,61,64,60,55,90,69,34,29.91,29.81,17,7,23,0.00
2013-6-12,70,65,59,66,60,52,91,84,70,30.00,29.70,31,12,37,0.33
2013-6-13,76,66,55,55,51,48,81,61,38,30.13,30.00,16,7,20,0.00
2013-6-14,79,70,63,62,58,52,83,66,49,30.11,29.86,31,14,35,0.04
2013-6-15,78,72,66,66,60,54,90,68,46,29.98,29.88,20,7,24,0.24
2013-6-16,84,73,61,55,49,41,70,45,22,30.00,29.92,18,8,24,0.00
2013-6-17,82,73,61,54,50,45,75,46,28,30.01,29.93,21,9,31,0.00
2013-6-18,76,68,58,56,54,49,88,62,38,30.09,30.00,18,7,27,0.00
2013-6-19,85,75,62,60,55,49,77,52,29,30.05,29.93,21,10,26,0.00
2013-6-20,88,79,67,64,62,60,81,58,41,30.00,29.87,28,15,35,0.00
2013-6-21,85,75,64,70,65,56,91,70,56,29.97,29.82,40,14,45,1.54
2013-6-22,80,70,61,68,64,59,92,79,60,30.08,29.81,40,8,45,3.89
2013-6-23,80,74,67,67,63,60,85,71,53,29.93,29.71,28,10,37,0.21
2013-6-24,75,70,65,69,64,62,92,81,66,29.94,29.81,17,6,19,0.51
2013-6-25,87,76,66,71,66,60,93,75,41,29.84,29.73,22,7,26,0.00
2013-6-26,86,78,71,70,64,55,92,66,35,29.89,29.69,20,7,29,0.00
2013-6-27,85,77,69,62,57,49,75,51,30,29.95,29.87,23,9,29,0.00
2013-6-28,80,73,65,56,53,51,67,51,38,29.93,29.85,30,15,38,0.00
2013-6-29,76,68,62,60,55,46,89,63,36,29.99,29.83,26,13,32,0.02
2013-6-30,76,67,56,53,49,41,80,54,28,30.14,29.99,18,8,23,0.00
2013-7-1,82,72,59,55,50,44,74,49,27,30.21,30.14,13,6,17,0.00
2013-7-2,81,72,61,58,52,48,76,51,33,30.17,30.07,14,5,18,0.00
2013-7-3,82,73,62,56,52,48,81,49,32,30.08,29.97,12,4,14,0.00
2013-7-4,87,76,64,56,52,46,71,46,25,29.98,29.88,20,9,35,0.00
2013-7-5,88,77,69,61,56,52,67,50,33,29.92,29.83,25,12,30,0.00
2013-7-6,90,78,70,64,60,57,64,54,37,29.89,29.81,22,11,28,0.00
2013-7-7,90,78,70,70,64,61,86,62,44,29.94,29.86,30,6,58,1.40
2013-7-8,87,75,66,70,65,62,90,73,44,30.02,29.92,8,4,12,0.00
2013-7-9,85,77,66,69,66,61,86,69,50,30.00,29.79,31,8,46,0.30
2013-7-10,78,69,60,65,55,49,84,62,38,30.11,30.00,19,7,23,0.00
2013-7-11,84,72,62,58,55,51,80,56,34,30.13,29.98,20,8,24,0.00
2013-7-12,88,76,66,63,58,55,68,54,40,30.01,29.91,26,15,36,0.00
2013-7-13,80,73,67,65,61,58,83,66,56,30.06,29.93,24,12,33,0.16
2013-7-14,85,75,67,62,59,56,80,60,37,30.19,30.03,19,10,23,0.01
2013-7-15,86,76,65,69,62,58,84,64,40,30.24,30.16,16,7,22,0.00
2013-7-16,90,81,71,68,65,62,85,61,39,30.25,30.18,17,8,23,0.00
2013-7-17,93,82,72,68,66,63,79,59,39,30.29,30.15,17,7,22,0.00
2013-7-18,90,83,75,68,66,63,77,59,42,30.15,29.86,26,10,30,0.00
2013-7-19,82,78,68,67,60,51,77,56,35,29.95,29.81,21,10,26,0.03
2013-7-20,80,71,62,64,59,56,84,66,47,30.00,29.91,12,5,17,0.00
2013-7-21,84,74,66,65,62,52,88,69,34,29.95,29.81,11,5,14,0.00
2013-7-22,89,74,64,68,62,43,90,67,20,29.92,29.68,26,9,37,0.01
2013-7-23,73,64,57,56,53,48,84,69,47,30.04,29.90,13,6,16,0.01
2013-7-24,78,68,57,56,53,50,83,60,38,30.09,30.01,13,4,16,0.00
2013-7-25,82,70,62,66,60,54,85,70,52,30.03,29.95,16,6,23,0.06
2013-7-26,67,62,55,62,51,47,86,68,50,30.11,29.97,23,11,28,0.00
2013-7-27,66,58,50,48,43,37,83,59,38,30.12,29.99,18,9,26,0.00
2013-7-28,71,59,46,50,44,41,82,60,38,30.08,30.01,17,6,20,0.00
2013-7-29,76,64,50,54,49,44,82,59,36,30.12,30.06,16,6,24,0.00
2013-7-30,72,67,62,63,59,54,90,75,63,30.11,30.06,11,4,13,0.00
2013-7-31,78,68,58,61,57,51,92,70,38,30.14,30.05,12,6,18,0.00
2013-8-1,84,71,58,62,56,49,81,61,38,30.10,29.91,19,6,21,0.00
2013-8-2,72,67,61,58,54,50,81,64,46,30.08,29.91,12,4,16,0.02
2013-8-3,75,64,53,54,50,44,82,61,36,30.21,30.07,15,5,17,0.00
2013-8-4,76,65,53,59,52,46,83,63,42,30.24,30.00,14,5,21,0.03
2013-8-5,81,70,61,66,62,57,91,77,52,30.06,29.86,17,7,26,0.58
2013-8-6,84,72,59,64,61,56,92,70,41,29.90,29.78,16,6,24,0.00
2013-8-7,72,66,61,59,55,49,90,69,44,30.06,29.84,14,7,18,0.00
2013-8-8,73,64,58,63,56,50,88,75,59,30.10,30.00,12,5,19,0.18
2013-8-9,74,66,57,60,55,51,92,70,48,30.16,30.03,14,6,19,0.24
2013-8-10,77,65,54,63,55,49,90,72,47,30.21,30.09,8,3,15,0.16
2013-8-11,73,66,62,63,60,59,91,82,67,30.11,30.03,10,4,17,1.43
2013-8-12,75,66,58,60,55,50,92,69,43,30.10,30.05,14,6,18,0.00
2013-8-13,71,63,54,57,51,45,88,67,40,30.20,30.10,12,5,17,0.00
2013-8-14,73,63,53,56,50,44,85,62,39,30.22,30.12,10,4,14,0.00
2013-8-15,73,63,52,57,53,49,92,73,46,30.17,30.10,12,4,16,0.00
2013-8-16,73,63,52,55,53,50,91,71,48,30.21,30.15,12,4,15,0.00
2013-8-17,77,66,54,56,53,49,83,64,43,30.20,30.12,17,7,23,0.00
2013-8-18,78,67,53,57,53,49,86,63,39,30.15,30.03,17,7,23,0.00
2013-8-19,84,74,64,67,62,55,80,68,54,30.06,29.92,18,8,20,0.00
2013-8-20,84,76,66,72,67,62,88,75,63,29.94,29.89,15,7,20,0.00
2013-8-21,80,75,71,72,68,66,91,79,66,30.02,29.88,16,6,18,0.00
2013-8-22,79,72,64,70,63,55,93,72,55,30.13,30.02,22,6,22,0.40
2013-8-23,81,72,62,70,65,58,91,78,60,30.13,30.03,19,7,21,0.00
2013-8-24,84,76,70,72,68,66,87,75,62,30.07,29.97,24,12,32,0.06
2013-8-25,89,81,75,73,70,68,79,69,55,30.06,29.98,20,10,24,0.00
2013-8-26,90,82,76,74,70,67,79,68,54,30.02,29.89,19,9,22,0.00
2013-8-27,89,81,76,73,68,65,74,63,53,29.90,29.83,26,9,29,0.00